Time;durP1;ratioP1;P1;durP2;ratioP2;P2;SDS_P1;SDS_P2;PMS_P1;PMS_P2;Temp;Humidity;BMP_temperature;BMP_pressure;BME280_temperature;BME280_humidity;BME280_pressure;Samples;Min_cycle;Max_cycle;Signal;HPM_P1;HPM_P2
2023/08/04 00:01:38;;;;;;;4.90;4.00;;;;;;;27.55;66.63;101243.73;106691;1256;25510;-51
2023/08/04 00:04:05;;;;;;;4.60;4.20;;;;;;;27.54;66.81;101244.52;106691;1259;25328;-51
2023/08/04 00:06:33;;;;;;;5.60;4.20;;;;;;;27.54;66.98;101249.73;106937;1263;25328;-52
2023/08/04 00:09:00;;;;;;;7.50;5.10;;;;;;;27.53;66.98;101250.67;106569;1267;25487;-51
2023/08/04 00:11:27;;;;;;;6.40;4.80;;;;;;;27.53;67.17;101252.33;107188;1263;25350;-51
2023/08/04 00:13:54;;;;;;;6.00;4.40;;;;;;;27.51;67.41;101254.41;107166;1254;25487;-52
2023/08/04 00:16:21;;;;;;;6.00;4.80;;;;;;;27.51;67.56;101259.11;107027;1266;25356;-51
2023/08/04 00:18:48;;;;;;;4.50;3.90;;;;;;;27.51;67.63;101257.45;107105;1259;25362;-51
2023/08/04 00:21:15;;;;;;;4.80;4.00;;;;;;;27.52;67.84;101250.46;107156;1251;25440;-52
2023/08/04 00:23:42;;;;;;;4.90;4.40;;;;;;;27.51;68.01;101250.89;107173;1253;22578;-51
2023/08/04 00:26:09;;;;;;;7.00;4.30;;;;;;;27.52;68.20;101253.33;107300;1254;25347;-52
2023/08/04 00:28:36;;;;;;;4.60;4.10;;;;;;;27.51;68.23;101255.30;107130;1254;25477;-52
2023/08/04 00:31:03;;;;;;;4.50;4.10;;;;;;;27.52;68.25;101254.20;107143;1258;22578;-52
2023/08/04 00:33:30;;;;;;;6.90;4.60;;;;;;;27.54;68.30;101252.79;107152;1263;25475;-51
2023/08/04 00:35:57;;;;;;;4.80;4.40;;;;;;;27.53;68.32;101247.84;107271;1261;25356;-51
2023/08/04 00:38:25;;;;;;;6.20;4.40;;;;;;;27.53;68.31;101244.65;107194;1253;25452;-51
2023/08/04 00:40:52;;;;;;;6.30;4.40;;;;;;;27.52;68.48;101245.98;107150;1259;25350;-52
2023/08/04 00:43:19;;;;;;;4.90;4.10;;;;;;;27.52;68.51;101240.45;107277;1254;25408;-52
2023/08/04 00:45:46;;;;;;;4.90;4.10;;;;;;;27.52;68.55;101239.23;106817;1269;25418;-52
2023/08/04 00:48:13;;;;;;;4.50;3.90;;;;;;;27.51;68.51;101240.36;107239;1263;25337;-51
2023/08/04 00:50:40;;;;;;;5.20;4.70;;;;;;;27.50;68.45;101240.65;107245;1257;25321;-52
2023/08/04 00:53:07;;;;;;;4.50;4.10;;;;;;;27.48;68.61;101241.84;107220;1257;25318;-52
2023/08/04 00:55:34;;;;;;;4.90;3.80;;;;;;;27.49;68.54;101245.02;107087;1266;22636;-52
2023/08/04 00:58:01;;;;;;;5.20;4.50;;;;;;;27.49;68.78;101250.20;107022;1260;25384;-52
2023/08/04 01:00:28;;;;;;;5.00;4.10;;;;;;;27.49;68.95;101248.05;107151;1257;24364;-52
2023/08/04 01:02:55;;;;;;;4.50;4.10;;;;;;;27.49;68.90;101250.39;107123;1270;25337;-52
2023/08/04 01:05:24;;;;;;;7.60;4.50;;;;;;;27.49;68.99;101251.44;107116;1260;25478;-52
2023/08/04 01:07:57;;;;;;;6.00;4.00;;;;;;;27.49;69.17;101248.20;106956;1267;25379;-52
2023/08/04 01:10:35;;;;;;;4.60;3.90;;;;;;;27.50;69.28;101249.58;107137;1256;25359;-52
2023/08/04 01:13:07;;;;;;;5.30;4.20;;;;;;;27.39;69.64;101254.55;106872;1259;25414;-52
2023/08/04 01:15:33;;;;;;;4.90;4.50;;;;;;;27.24;70.38;101257.36;107131;1257;25490;-52
2023/08/04 01:18:00;;;;;;;6.00;4.90;;;;;;;27.22;70.64;101260.94;107131;1257;25366;-52
2023/08/04 01:20:28;;;;;;;7.00;4.80;;;;;;;27.20;70.79;101264.98;107151;1266;25417;-52
2023/08/04 01:22:55;;;;;;;5.40;4.90;;;;;;;27.20;70.89;101267.52;107258;1262;25331;-52
2023/08/04 01:25:29;;;;;;;6.10;5.50;;;;;;;27.22;70.90;101265.17;107019;1259;25332;-52
2023/08/04 01:27:58;;;;;;;5.10;4.60;;;;;;;27.28;70.76;101264.86;107108;1256;24343;-52
2023/08/04 01:30:25;;;;;;;5.10;4.70;;;;;;;27.29;70.89;101262.84;107142;1263;22515;-52
2023/08/04 01:32:53;;;;;;;6.00;4.70;;;;;;;27.30;71.04;101265.95;107117;1263;25328;-52
2023/08/04 01:35:20;;;;;;;5.10;4.60;;;;;;;27.31;70.94;101264.28;106746;1269;25347;-52
2023/08/04 01:37:47;;;;;;;5.30;4.70;;;;;;;27.32;70.80;101259.76;106900;1261;25478;-52
2023/08/04 01:40:14;;;;;;;5.10;4.60;;;;;;;27.31;70.78;101260.91;106933;1253;25350;-53
2023/08/04 01:42:41;;;;;;;4.40;4.00;;;;;;;27.30;70.54;101263.32;106948;1257;25414;-52
2023/08/04 01:45:09;;;;;;;6.20;4.10;;;;;;;27.28;70.58;101263.77;107097;1267;25321;-52
2023/08/04 01:47:38;;;;;;;6.40;4.30;;;;;;;27.28;70.16;101264.73;107110;1263;22534;-52
2023/08/04 01:50:09;;;;;;;5.00;3.80;;;;;;;27.27;70.12;101265.88;107075;1254;24309;-52
2023/08/04 01:52:36;;;;;;;6.20;4.00;;;;;;;27.26;70.05;101262.39;106793;1262;25338;-52
2023/08/04 01:55:04;;;;;;;5.50;4.50;;;;;;;27.24;69.94;101263.80;107130;1263;25366;-52
2023/08/04 01:57:31;;;;;;;4.10;3.80;;;;;;;27.22;70.03;101264.82;106885;1263;25338;-52
2023/08/04 01:59:58;;;;;;;5.70;4.90;;;;;;;27.23;69.93;101261.77;107034;1260;25321;-52
2023/08/04 02:02:26;;;;;;;5.60;5.00;;;;;;;27.21;69.93;101265.09;107193;1253;25350;-52
2023/08/04 02:04:57;;;;;;;;;;;;;;;27.19;69.76;101266.14;107215;1254;22505;-52
2023/08/04 02:07:24;;;;;;;6.60;5.80;;;;;;;27.18;69.77;101263.60;107079;1265;25490;-52
2023/08/04 02:09:52;;;;;;;5.50;5.00;;;;;;;27.16;69.76;101271.44;107182;1266;25365;-52
2023/08/04 02:12:20;;;;;;;6.90;5.40;;;;;;;27.14;69.60;101270.30;107139;1253;25331;-52
2023/08/04 02:14:47;;;;;;;5.90;5.40;;;;;;;27.14;69.72;101271.23;107024;1257;25331;-52
2023/08/04 02:17:15;;;;;;;6.50;5.90;;;;;;;27.12;69.68;101268.15;107193;1263;25417;-52
2023/08/04 02:19:42;;;;;;;6.90;6.10;;;;;;;27.12;69.69;101270.85;106844;1259;25350;-53
2023/08/04 02:22:10;;;;;;;5.70;5.20;;;;;;;27.11;69.60;101277.36;107070;1267;25359;-52
2023/08/04 02:24:37;;;;;;;5.60;5.10;;;;;;;27.10;69.58;101279.02;107026;1266;23417;-52
2023/08/04 02:27:04;;;;;;;5.80;5.30;;;;;;;27.09;69.68;101281.04;107009;1266;22577;-52
2023/08/04 02:29:31;;;;;;;6.10;5.60;;;;;;;27.09;69.66;101281.30;106925;1259;25365;-52
2023/08/04 02:31:58;;;;;;;7.20;5.80;;;;;;;27.08;69.68;101283.81;106960;1266;25596;-52
2023/08/04 02:34:25;;;;;;;6.50;5.90;;;;;;;27.08;69.69;101283.64;106677;1269;25440;-52
2023/08/04 02:36:52;;;;;;;6.70;5.80;;;;;;;27.08;69.74;101282.44;106907;1270;25369;-52
2023/08/04 02:39:19;;;;;;;6.00;5.40;;;;;;;27.07;69.63;101281.80;107085;1267;23328;-52
2023/08/04 02:41:46;;;;;;;6.60;5.20;;;;;;;27.06;69.74;101281.32;106867;1266;24244;-52
2023/08/04 02:44:13;;;;;;;5.60;5.10;;;;;;;27.05;69.67;101288.73;106917;1257;25360;-52
2023/08/04 02:46:40;;;;;;;7.50;5.20;;;;;;;27.04;69.81;101289.30;106770;1266;25454;-52
2023/08/04 02:49:07;;;;;;;5.10;4.70;;;;;;;27.04;69.87;101291.45;106869;1266;25414;-52
2023/08/04 02:51:34;;;;;;;6.40;4.50;;;;;;;27.05;69.95;101293.39;107031;1272;25475;-52
2023/08/04 02:54:01;;;;;;;5.30;4.80;;;;;;;27.05;70.08;101292.65;106957;1269;25450;-52
2023/08/04 02:56:29;;;;;;;5.80;5.20;;;;;;;27.05;70.21;101293.89;106889;1259;25421;-52
2023/08/04 02:58:56;;;;;;;5.00;4.60;;;;;;;27.06;70.26;101299.52;106418;1270;25365;-52
2023/08/04 03:01:23;;;;;;;6.50;4.90;;;;;;;27.07;70.29;101303.34;106741;1257;23430;-52
2023/08/04 03:03:50;;;;;;;5.60;4.40;;;;;;;27.08;70.29;101303.81;106950;1266;25449;-52
2023/08/04 03:06:17;;;;;;;7.20;4.40;;;;;;;27.08;70.47;101301.27;106973;1253;25359;-52
2023/08/04 03:08:44;;;;;;;6.60;4.40;;;;;;;27.08;70.47;101300.37;106892;1260;22543;-53
2023/08/04 03:11:11;;;;;;;6.70;4.00;;;;;;;27.09;70.39;101304.60;106781;1267;25481;-53
2023/08/04 03:13:38;;;;;;;5.20;4.80;;;;;;;27.09;70.53;101302.47;106912;1264;22524;-52
2023/08/04 03:16:05;;;;;;;4.90;4.50;;;;;;;27.11;70.72;101302.69;106877;1260;24218;-52
2023/08/04 03:18:32;;;;;;;5.00;4.50;;;;;;;27.12;70.63;101308.44;106944;1257;24213;-52
2023/08/04 03:21:05;;;;;;;5.10;4.60;;;;;;;27.14;70.56;101310.59;106818;1256;25491;-53
2023/08/04 03:23:32;;;;;;;6.00;5.20;;;;;;;27.14;70.67;101311.65;106902;1263;25337;-52
2023/08/04 03:25:59;;;;;;;6.10;5.10;;;;;;;27.15;70.91;101310.66;106977;1264;25332;-52
2023/08/04 03:28:27;;;;;;;5.30;4.60;;;;;;;27.16;71.08;101313.05;107159;1257;25331;-52
2023/08/04 03:30:54;;;;;;;5.10;4.70;;;;;;;27.18;71.14;101308.86;106892;1269;25487;-52
2023/08/04 03:33:21;;;;;;;6.50;4.90;;;;;;;27.19;71.28;101312.83;107034;1266;25364;-52
2023/08/04 03:35:48;;;;;;;7.50;5.00;;;;;;;27.22;71.47;101311.67;106996;1256;24228;-52
2023/08/04 03:38:15;;;;;;;5.00;4.60;;;;;;;27.24;71.56;101314.73;106987;1259;25346;-52
2023/08/04 03:40:42;;;;;;;4.80;4.40;;;;;;;27.27;71.68;101316.09;107089;1266;25417;-52
2023/08/04 03:43:09;;;;;;;4.60;4.30;;;;;;;27.30;71.88;101318.17;107171;1263;25478;-52
2023/08/04 03:45:36;;;;;;;5.30;4.00;;;;;;;27.33;72.21;101314.35;107124;1258;25327;-52
2023/08/04 03:48:04;;;;;;;5.40;4.20;;;;;;;27.37;72.42;101310.80;107137;1267;25554;-52
2023/08/04 03:50:31;;;;;;;6.00;5.40;;;;;;;27.43;73.01;101313.90;106895;1260;26484;-53
2023/08/04 03:52:58;;;;;;;5.30;4.50;;;;;;;27.50;73.50;101314.02;107113;1270;25341;-52
2023/08/04 03:55:25;;;;;;;4.70;4.30;;;;;;;27.60;73.75;101313.19;106966;1261;25359;-52
2023/08/04 03:57:52;;;;;;;5.30;4.80;;;;;;;27.71;73.68;101316.38;107055;1260;25442;-52
2023/08/04 04:00:19;;;;;;;4.60;4.20;;;;;;;27.80;73.28;101319.15;107010;1263;25333;-52
2023/08/04 04:02:47;;;;;;;4.80;4.40;;;;;;;27.86;72.85;101312.40;107173;1269;25322;-52
2023/08/04 04:05:14;;;;;;;4.50;4.00;;;;;;;27.90;72.85;101314.55;107185;1266;25356;-52
2023/08/04 04:07:41;;;;;;;5.00;4.50;;;;;;;27.93;72.60;101315.72;107065;1258;25345;-51
2023/08/04 04:10:08;;;;;;;4.40;4.00;;;;;;;27.96;72.68;101317.59;107175;1254;25312;-52
2023/08/04 04:12:36;;;;;;;8.10;4.00;;;;;;;28.00;72.39;101316.58;107188;1263;25449;-51
2023/08/04 04:15:07;;;;;;;6.50;4.20;;;;;;;28.00;72.46;101315.83;107211;1254;24667;-51
2023/08/04 04:17:35;;;;;;;5.20;4.70;;;;;;;28.01;72.36;101319.86;107189;1264;23862;-51
2023/08/04 04:20:02;;;;;;;6.20;4.60;;;;;;;28.01;72.29;101321.46;106888;1261;25452;-51
2023/08/04 04:22:30;;;;;;;5.80;4.30;;;;;;;28.01;72.32;101321.98;107122;1263;25387;-51
2023/08/04 04:24:57;;;;;;;5.00;4.00;;;;;;;28.03;72.40;101325.02;107183;1269;25328;-51
2023/08/04 04:27:24;;;;;;;5.10;4.60;;;;;;;28.05;72.33;101328.56;107085;1267;25342;-51
2023/08/04 04:29:51;;;;;;;4.90;4.50;;;;;;;28.07;72.11;101329.47;107245;1267;25488;-51
2023/08/04 04:32:18;;;;;;;6.00;5.10;;;;;;;28.08;72.16;101333.48;107139;1260;25366;-51
2023/08/04 04:34:45;;;;;;;5.50;4.80;;;;;;;28.09;72.16;101331.42;107153;1269;25356;-51
2023/08/04 04:37:12;;;;;;;5.00;4.30;;;;;;;28.10;72.07;101331.19;107191;1254;25347;-52
2023/08/04 04:39:39;;;;;;;5.50;4.40;;;;;;;28.11;72.15;101332.02;107177;1260;25366;-51
2023/08/04 04:42:06;;;;;;;6.40;4.30;;;;;;;28.10;72.05;101330.25;107190;1260;25490;-52
2023/08/04 04:44:33;;;;;;;5.40;4.30;;;;;;;28.11;72.32;101336.05;106976;1264;25366;-52
2023/08/04 04:47:00;;;;;;;6.80;4.20;;;;;;;28.13;72.30;101334.70;106704;1264;22531;-51
2023/08/04 04:49:28;;;;;;;4.60;4.10;;;;;;;28.14;72.45;101340.45;106930;1254;25341;-51
2023/08/04 04:51:55;;;;;;;5.40;4.90;;;;;;;28.16;72.54;101342.77;106896;1254;24236;-51
2023/08/04 04:54:22;;;;;;;5.70;4.50;;;;;;;28.18;72.40;101342.23;106908;1266;25315;-51
2023/08/04 04:56:49;;;;;;;4.60;4.20;;;;;;;28.20;72.55;101343.73;106879;1260;25360;-51
2023/08/04 04:59:16;;;;;;;4.90;4.30;;;;;;;28.21;72.62;101343.43;106944;1261;24207;-51
2023/08/04 05:01:44;;;;;;;5.80;4.30;;;;;;;28.24;72.72;101342.45;107118;1254;25341;-51
2023/08/04 05:04:11;;;;;;;4.50;4.10;;;;;;;28.25;72.51;101341.61;107133;1261;22534;-51
2023/08/04 05:06:38;;;;;;;4.40;4.00;;;;;;;28.28;72.55;101339.40;107071;1258;25356;-51
2023/08/04 05:09:05;;;;;;;4.80;4.30;;;;;;;28.30;72.60;101343.14;107121;1254;25487;-51
2023/08/04 05:11:32;;;;;;;4.60;3.80;;;;;;;28.32;72.34;101344.81;107118;1266;25356;-50
2023/08/04 05:13:59;;;;;;;4.70;4.10;;;;;;;28.34;72.41;101344.99;107124;1250;23276;-51
2023/08/04 05:16:28;;;;;;;4.60;4.00;;;;;;;28.36;72.30;101343.05;107087;1263;22539;-51
2023/08/04 05:18:55;;;;;;;4.80;4.40;;;;;;;28.38;72.27;101345.34;107111;1266;22527;-50
2023/08/04 05:21:22;;;;;;;5.70;4.30;;;;;;;28.41;72.25;101349.22;107323;1255;25340;-50
2023/08/04 05:23:49;;;;;;;7.90;4.90;;;;;;;28.43;72.30;101351.82;107123;1257;25362;-51
2023/08/04 05:26:16;;;;;;;4.50;4.10;;;;;;;28.46;72.14;101355.48;107151;1267;25490;-50
2023/08/04 05:28:43;;;;;;;5.20;4.40;;;;;;;28.49;71.98;101353.77;107057;1257;25459;-50
2023/08/04 05:31:10;;;;;;;4.60;4.10;;;;;;;28.53;72.16;101356.46;106837;1253;25347;-50
2023/08/04 05:33:37;;;;;;;4.80;4.40;;;;;;;28.58;71.94;101360.88;106989;1250;24181;-50
2023/08/04 05:36:04;;;;;;;5.70;4.50;;;;;;;28.65;72.03;101355.82;106991;1251;25347;-50
2023/08/04 05:38:32;;;;;;;5.00;4.50;;;;;;;28.79;72.23;101356.52;106957;1263;25381;-51
2023/08/04 05:41:01;;;;;;;5.50;4.10;;;;;;;29.01;72.16;101362.80;106941;1260;24218;-50
2023/08/04 05:43:28;;;;;;;4.60;3.50;;;;;;;29.28;71.63;101363.02;106892;1263;25356;-50
2023/08/04 05:45:59;;;;;;;4.50;4.10;;;;;;;29.61;70.61;101366.95;107020;1251;25382;-50
2023/08/04 05:48:26;;;;;;;5.40;3.60;;;;;;;29.99;68.78;101363.05;107031;1270;25331;-50
2023/08/04 05:50:55;;;;;;;4.60;3.60;;;;;;;30.35;67.17;101367.67;107136;1258;25432;-50
2023/08/04 05:53:22;;;;;;;3.90;3.60;;;;;;;30.67;65.60;101369.46;107087;1254;24209;-50
2023/08/04 05:55:49;;;;;;;6.40;3.80;;;;;;;30.92;64.40;101373.78;106961;1254;22564;-50
2023/08/04 05:58:16;;;;;;;5.60;3.60;;;;;;;31.14;63.05;101375.55;106911;1271;25331;-50
2023/08/04 06:00:43;;;;;;;5.70;3.30;;;;;;;31.36;62.31;101374.81;106899;1264;24201;-50
2023/08/04 06:03:10;;;;;;;7.00;3.30;;;;;;;31.61;61.42;101373.77;107144;1254;24050;-50
2023/08/04 06:05:37;;;;;;;6.00;3.40;;;;;;;31.90;60.60;101377.20;106707;1257;25375;-50
2023/08/04 06:08:04;;;;;;;3.20;2.90;;;;;;;32.20;59.60;101374.67;107034;1253;25452;-50
2023/08/04 06:10:32;;;;;;;3.40;3.10;;;;;;;32.42;58.60;101371.33;107141;1264;25330;-50
2023/08/04 06:12:59;;;;;;;5.30;2.90;;;;;;;32.58;57.79;101367.34;107190;1258;25433;-50
2023/08/04 06:15:26;;;;;;;4.50;3.60;;;;;;;32.65;57.33;101370.74;107164;1260;25332;-50
2023/08/04 06:17:54;;;;;;;5.20;3.20;;;;;;;32.65;57.26;101370.91;107152;1263;25331;-50
2023/08/04 06:20:21;;;;;;;3.30;3.00;;;;;;;32.60;57.13;101377.66;107079;1257;25321;-51
2023/08/04 06:22:48;;;;;;;6.50;3.20;;;;;;;32.54;57.31;101375.46;107126;1254;25344;-50
2023/08/04 06:25:15;;;;;;;3.30;3.00;;;;;;;32.48;57.16;101375.55;107138;1254;25404;-50
2023/08/04 06:27:42;;;;;;;5.30;3.40;;;;;;;32.42;57.33;101374.21;107061;1251;25321;-50
2023/08/04 06:30:10;;;;;;;4.30;3.20;;;;;;;32.35;57.32;101374.96;107515;1254;25418;-51
2023/08/04 06:32:37;;;;;;;5.20;3.20;;;;;;;32.28;57.58;101379.11;106986;1260;22524;-50
2023/08/04 06:35:04;;;;;;;6.30;3.50;;;;;;;32.22;57.81;101379.16;107147;1251;22524;-50
2023/08/04 06:37:31;;;;;;;5.10;3.60;;;;;;;32.19;58.02;101381.66;106831;1254;25344;-50
2023/08/04 06:39:58;;;;;;;5.20;3.60;;;;;;;32.16;58.12;101379.84;107098;1258;25343;-50
2023/08/04 06:42:25;;;;;;;4.40;3.30;;;;;;;32.14;58.16;101375.20;107249;1266;25341;-50
2023/08/04 06:44:52;;;;;;;3.60;3.30;;;;;;;32.13;58.33;101376.14;107147;1251;25341;-50
2023/08/04 06:47:19;;;;;;;4.50;3.20;;;;;;;32.13;58.43;101377.41;107184;1258;25411;-50
2023/08/04 06:49:46;;;;;;;3.90;3.40;;;;;;;32.12;58.50;101378.98;107222;1257;25800;-50
2023/08/04 06:52:13;;;;;;;6.70;3.10;;;;;;;32.09;58.52;101381.39;107185;1254;25331;-50
2023/08/04 06:54:40;;;;;;;3.60;3.30;;;;;;;32.05;58.43;101382.63;107212;1257;25417;-50
2023/08/04 06:57:07;;;;;;;4.40;3.40;;;;;;;32.00;58.35;101380.09;107189;1264;25359;-50
2023/08/04 06:59:35;;;;;;;3.90;3.10;;;;;;;31.95;58.74;101384.41;107170;1251;25487;-50
2023/08/04 07:02:02;;;;;;;3.40;3.10;;;;;;;31.92;59.17;101390.31;106976;1261;25359;-50
2023/08/04 07:04:29;;;;;;;3.70;3.10;;;;;;;31.90;59.16;101392.85;106833;1267;25341;-50
2023/08/04 07:06:56;;;;;;;6.30;3.10;;;;;;;31.88;59.43;101396.23;106849;1261;25420;-50
2023/08/04 07:09:23;;;;;;;4.20;3.10;;;;;;;31.90;59.75;101397.59;107117;1253;25346;-50
2023/08/04 07:11:51;;;;;;;3.50;3.20;;;;;;;31.98;59.63;101398.81;107165;1264;25382;-50
2023/08/04 07:14:18;;;;;;;4.60;3.00;;;;;;;32.10;59.29;101397.39;107259;1253;25350;-50
2023/08/04 07:16:46;;;;;;;3.50;3.00;;;;;;;32.29;58.84;101398.88;106880;1265;25325;-50
2023/08/04 07:19:16;;;;;;;4.60;3.10;;;;;;;32.48;58.17;101395.52;107128;1251;25408;-50
2023/08/04 07:21:44;;;;;;;3.70;3.10;;;;;;;32.67;57.54;101392.89;107112;1260;25407;-50
2023/08/04 07:24:11;;;;;;;4.00;3.20;;;;;;;32.88;57.19;101394.45;107242;1254;25340;-51
2023/08/04 07:26:38;;;;;;;3.90;3.00;;;;;;;33.07;56.55;101395.67;107144;1251;24273;-50
2023/08/04 07:29:05;;;;;;;2.70;2.50;;;;;;;33.27;55.85;101395.69;106992;1257;25347;-50
2023/08/04 07:31:32;;;;;;;4.60;3.20;;;;;;;33.44;55.33;101394.02;107237;1251;24275;-51
2023/08/04 07:34:00;;;;;;;3.20;2.90;;;;;;;33.57;54.73;101396.19;107154;1254;25347;-51
2023/08/04 07:36:27;;;;;;;5.10;3.00;;;;;;;33.65;54.37;101397.95;106709;1260;25347;-50
2023/08/04 07:38:54;;;;;;;3.20;2.90;;;;;;;33.69;54.22;101395.09;107149;1261;25478;-51
2023/08/04 07:41:26;;;;;;;3.20;2.90;;;;;;;33.71;54.06;101394.36;107029;1269;25366;-51
2023/08/04 07:43:53;;;;;;;3.20;2.90;;;;;;;33.70;53.89;101397.45;107171;1264;25376;-51
2023/08/04 07:46:25;;;;;;;3.20;2.80;;;;;;;33.71;53.96;101401.35;107115;1260;24237;-50
2023/08/04 07:48:52;;;;;;;4.30;3.10;;;;;;;33.71;53.86;101399.89;107148;1250;22629;-50
2023/08/04 07:51:20;;;;;;;3.20;2.70;;;;;;;33.69;53.82;101401.61;107192;1256;25341;-50
2023/08/04 07:53:47;;;;;;;3.20;2.90;;;;;;;33.62;53.71;101406.02;107080;1260;25421;-50
2023/08/04 07:56:14;;;;;;;3.40;2.90;;;;;;;33.57;53.88;101411.08;107216;1251;22535;-51
2023/08/04 07:58:41;;;;;;;4.50;2.80;;;;;;;33.51;54.13;101409.62;107174;1253;25394;-50
2023/08/04 08:01:08;;;;;;;2.60;2.40;;;;;;;33.45;54.28;101413.82;107134;1257;25340;-50
2023/08/04 08:03:36;;;;;;;3.20;2.80;;;;;;;33.41;54.59;101415.15;107209;1254;24180;-49
2023/08/04 08:06:03;;;;;;;5.70;3.10;;;;;;;33.38;54.60;101416.39;107197;1254;25359;-50
2023/08/04 08:08:31;;;;;;;3.30;3.00;;;;;;;33.36;54.62;101419.32;107100;1256;25513;-50
2023/08/04 08:10:58;;;;;;;4.30;2.80;;;;;;;33.34;54.48;101418.27;106925;1257;23897;-49
2023/08/04 08:13:25;;;;;;;6.20;3.00;;;;;;;33.31;54.53;101423.41;107053;1256;25341;-49
2023/08/04 08:15:52;;;;;;;3.60;3.00;;;;;;;33.29;54.61;101424.70;107210;1264;25503;-50
2023/08/04 08:18:19;;;;;;;3.20;2.90;;;;;;;33.27;54.48;101425.87;107047;1260;25379;-50
2023/08/04 08:20:46;;;;;;;3.00;2.60;;;;;;;33.25;54.44;101424.81;107143;1263;25365;-50
2023/08/04 08:23:13;;;;;;;3.20;2.90;;;;;;;33.23;54.40;101425.04;107142;1260;23411;-49
2023/08/04 08:25:41;;;;;;;2.90;2.70;;;;;;;33.20;54.62;101422.90;106773;1260;25340;-49
2023/08/04 08:28:08;;;;;;;3.50;3.20;;;;;;;33.17;54.52;101426.27;106468;1261;25335;-50
2023/08/04 08:30:35;;;;;;;4.50;3.00;;;;;;;33.13;54.38;101427.70;107089;1257;25353;-49
2023/08/04 08:33:03;;;;;;;3.10;2.60;;;;;;;33.15;54.57;101425.05;106842;1267;25341;-49
2023/08/04 08:35:30;;;;;;;3.00;2.60;;;;;;;33.15;54.76;101426.09;106990;1261;25369;-49
2023/08/04 08:37:57;;;;;;;6.50;2.90;;;;;;;33.15;54.76;101428.92;106956;1266;25331;-49
2023/08/04 08:40:25;;;;;;;2.80;2.50;;;;;;;33.16;54.74;101430.67;106975;1257;25344;-49
2023/08/04 08:42:54;;;;;;;4.50;3.20;;;;;;;33.17;54.93;101432.58;106952;1257;25420;-49
2023/08/04 08:45:24;;;;;;;6.20;3.40;;;;;;;33.19;54.95;101434.10;106992;1261;25317;-49
2023/08/04 08:47:51;;;;;;;2.90;2.70;;;;;;;33.21;54.77;101436.99;106971;1256;25414;-49
2023/08/04 08:50:18;;;;;;;6.80;3.20;;;;;;;33.22;54.57;101436.50;106737;1272;25372;-49
2023/08/04 08:52:45;;;;;;;4.10;2.80;;;;;;;33.23;54.74;101442.44;106381;1263;25407;-50
2023/08/04 08:55:12;;;;;;;5.10;2.90;;;;;;;33.23;54.39;101443.02;106718;1264;25484;-49
2023/08/04 08:57:39;;;;;;;3.80;2.80;;;;;;;33.24;54.27;101445.58;106905;1264;25452;-49
2023/08/04 09:00:07;;;;;;;7.10;3.30;;;;;;;33.26;54.31;101450.30;106976;1263;25514;-49
2023/08/04 09:02:36;;;;;;;3.20;2.70;;;;;;;33.26;54.22;101449.33;106929;1261;24209;-51
2023/08/04 09:05:04;;;;;;;3.90;3.10;;;;;;;33.28;54.21;101454.85;106905;1254;25439;-49
2023/08/04 09:07:31;;;;;;;3.50;3.20;;;;;;;33.30;54.32;101451.67;106997;1256;25475;-50
2023/08/04 09:09:58;;;;;;;3.70;2.60;;;;;;;33.30;54.19;101447.80;106611;1273;25363;-50
2023/08/04 09:12:26;;;;;;;4.90;3.50;;;;;;;33.33;54.26;101452.96;106970;1267;25552;-50
2023/08/04 09:14:55;;;;;;;3.20;2.90;;;;;;;33.35;54.17;101453.84;106638;1254;25328;-51
2023/08/04 09:17:29;;;;;;;3.20;2.70;;;;;;;33.36;53.91;101455.64;106789;1270;25485;-50
2023/08/04 09:19:57;;;;;;;4.30;2.60;;;;;;;33.36;53.64;101451.70;106671;1263;22543;-50
2023/08/04 09:22:25;;;;;;;5.20;3.00;;;;;;;33.35;53.58;101456.27;106711;1256;25490;-49
2023/08/04 09:24:59;;;;;;;3.20;2.70;;;;;;;33.36;53.92;101459.11;107006;1253;25459;-49
2023/08/04 09:27:39;;;;;;;3.90;2.90;;;;;;;33.36;53.87;101456.93;106697;1254;25313;-49
2023/08/04 09:30:07;;;;;;;4.70;2.80;;;;;;;33.33;53.84;101458.97;106935;1250;24359;-50
2023/08/04 09:32:44;;;;;;;4.50;2.80;;;;;;;33.35;53.81;101462.25;106758;1263;22934;-50
2023/08/04 09:35:11;;;;;;;3.80;3.00;;;;;;;33.37;53.58;101461.48;106912;1260;25347;-50
2023/08/04 09:37:38;;;;;;;3.00;2.60;;;;;;;33.37;53.24;101464.86;107099;1253;22520;-51
2023/08/04 09:40:16;;;;;;;3.60;2.90;;;;;;;33.38;53.17;101467.50;107176;1263;24056;-51
2023/08/04 09:42:43;;;;;;;4.00;2.80;;;;;;;33.39;53.04;101467.95;107010;1257;25434;-49
2023/08/04 09:45:14;;;;;;;3.70;2.70;;;;;;;33.39;53.21;101466.08;107207;1262;25362;-51
2023/08/04 09:47:45;;;;;;;;;;;;;;;33.40;53.02;101466.89;107047;1261;25468;-51
2023/08/04 09:50:12;;;;;;;4.50;3.10;;;;;;;33.41;53.08;101467.67;107222;1263;25403;-52
2023/08/04 09:52:39;;;;;;;3.00;2.70;;;;;;;33.42;52.85;101468.71;107282;1254;25329;-51
2023/08/04 09:55:10;;;;;;;3.00;2.70;;;;;;;33.43;52.63;101467.14;106919;1269;25504;-49
2023/08/04 09:57:37;;;;;;;;;;;;;;;33.44;52.26;101464.16;106957;1257;25371;-48
2023/08/04 10:00:07;;;;;;;4.30;3.00;;;;;;;33.44;51.89;101466.23;107143;1258;25378;-49
2023/08/04 10:02:35;;;;;;;2.70;2.50;;;;;;;33.45;51.98;101467.48;107242;1263;23897;-49
2023/08/04 10:05:03;;;;;;;3.10;2.80;;;;;;;33.44;52.39;101466.97;106879;1259;25344;-50
2023/08/04 10:07:33;;;;;;;4.10;2.90;;;;;;;33.46;52.70;101464.69;107122;1250;25523;-49
2023/08/04 10:10:03;;;;;;;6.00;3.30;;;;;;;33.47;52.52;101464.35;107097;1251;25332;-51
2023/08/04 10:12:34;;;;;;;5.80;3.30;;;;;;;33.48;52.51;101464.56;107175;1253;25372;-52
2023/08/04 10:15:00;;;;;;;5.90;3.50;;;;;;;33.50;52.42;101468.40;107110;1261;25337;-49
2023/08/04 10:17:28;;;;;;;4.80;3.00;;;;;;;33.51;52.35;101468.04;107145;1256;25408;-49
2023/08/04 10:20:21;;;;;;;3.50;2.90;;;;;;;33.52;52.34;101463.11;107143;1263;25341;-49
2023/08/04 10:22:49;;;;;;;3.10;2.70;;;;;;;33.54;52.01;101465.98;107120;1272;25481;-49
2023/08/04 10:25:16;;;;;;;4.70;3.30;;;;;;;33.54;51.94;101465.39;107175;1262;25343;-49
2023/08/04 10:27:48;;;;;;;4.80;3.10;;;;;;;33.55;51.86;101464.56;107180;1251;25490;-49
2023/08/04 10:30:15;;;;;;;;;;;;;;;33.56;51.90;101462.55;107273;1251;25381;-50
2023/08/04 10:32:42;;;;;;;3.80;3.20;;;;;;;33.57;52.13;101462.79;106957;1254;25365;-49
2023/08/04 10:35:20;;;;;;;4.40;2.90;;;;;;;33.57;52.08;101460.35;107188;1253;25342;-50
2023/08/04 10:37:53;;;;;;;5.50;2.70;;;;;;;33.58;52.23;101462.79;107160;1266;25347;-51
2023/08/04 10:40:31;;;;;;;3.60;3.10;;;;;;;33.60;52.01;101462.72;106893;1266;25501;-49
2023/08/04 10:43:08;;;;;;;4.70;3.10;;;;;;;33.58;52.10;101458.87;107178;1254;24186;-49
2023/08/04 10:46:05;;;;;;;3.50;2.90;;;;;;;33.58;52.23;101461.30;107120;1267;22629;-50
2023/08/04 10:48:36;;;;;;;5.00;3.10;;;;;;;33.65;52.06;101458.62;107132;1266;25405;-51
2023/08/04 10:51:04;;;;;;;3.40;2.90;;;;;;;33.68;51.98;101454.07;107058;1266;25436;-50
2023/08/04 10:53:31;;;;;;;4.20;2.60;;;;;;;33.69;51.69;101455.35;107162;1253;25419;-50
2023/08/04 10:55:59;;;;;;;4.10;3.30;;;;;;;33.70;51.94;101458.15;106958;1266;25378;-51
2023/08/04 10:58:27;;;;;;;3.30;3.10;;;;;;;33.70;51.91;101457.04;107099;1253;22516;-49
2023/08/04 11:00:55;;;;;;;3.70;2.70;;;;;;;33.70;51.69;101455.96;107105;1251;25331;-50
2023/08/04 11:03:36;;;;;;;3.80;3.10;;;;;;;33.67;51.84;101455.80;107145;1263;22540;-50
2023/08/04 11:06:03;;;;;;;3.50;3.20;;;;;;;33.66;52.04;101456.93;107233;1260;25417;-50
2023/08/04 11:08:30;;;;;;;3.40;3.10;;;;;;;33.64;51.67;101458.91;106835;1267;25372;-51
2023/08/04 11:10:57;;;;;;;3.50;3.00;;;;;;;33.62;51.58;101458.29;107168;1260;25699;-51
2023/08/04 11:13:25;;;;;;;7.00;3.20;;;;;;;33.60;51.63;101460.06;107143;1250;24273;-50
2023/08/04 11:15:55;;;;;;;5.80;3.40;;;;;;;33.58;51.74;101462.77;106881;1260;23668;-50
2023/08/04 11:18:29;;;;;;;2.80;2.60;;;;;;;33.58;51.78;101464.23;107008;1266;22666;-50
2023/08/04 11:21:00;;;;;;;3.30;3.00;;;;;;;33.58;51.66;101458.81;107149;1266;22520;-50
2023/08/04 11:23:28;;;;;;;4.50;2.90;;;;;;;33.57;51.43;101460.73;106846;1258;25369;-51